sensor_id;sensor_type;location;lat;lon;timestamp;pressure;altitude;pressure_sealevel;temperature;humidity
72892;BME280;61032;50.782;6.818;2022-07-23T00:00:18;100696.25;;;20.88;60.54
72892;BME280;61032;50.782;6.818;2022-07-23T00:01:20;100697.06;;;20.92;61.06
72892;BME280;61032;50.782;6.818;2022-07-23T00:02:20;100693.47;;;20.91;60.93
72892;BME280;61032;50.782;6.818;2022-07-23T00:03:20;100693.47;;;20.95;60.47
72892;BME280;61032;50.782;6.818;2022-07-23T00:04:21;100701.06;;;20.95;60.98
72892;BME280;61032;50.782;6.818;2022-07-23T00:05:21;100703.84;;;20.91;60.67
72892;BME280;61032;50.782;6.818;2022-07-23T00:06:23;100698.66;;;20.93;61.25
72892;BME280;61032;50.782;6.818;2022-07-23T00:07:23;100702.25;;;20.90;61.34
72892;BME280;61032;50.782;6.818;2022-07-23T00:08:23;100699.03;;;20.88;61.64
72892;BME280;61032;50.782;6.818;2022-07-23T00:09:24;100698.63;;;20.86;61.40
72892;BME280;61032;50.782;6.818;2022-07-23T00:10:24;100699.84;;;20.85;61.27
72892;BME280;61032;50.782;6.818;2022-07-23T00:11:24;100702.25;;;20.86;61.86
72892;BME280;61032;50.782;6.818;2022-07-23T00:12:25;100706.63;;;20.87;61.35
72892;BME280;61032;50.782;6.818;2022-07-23T00:13:26;100702.25;;;20.90;61.78
72892;BME280;61032;50.782;6.818;2022-07-23T00:14:26;100710.22;;;20.88;61.88
72892;BME280;61032;50.782;6.818;2022-07-23T00:15:27;100709.41;;;20.84;62.25
72892;BME280;61032;50.782;6.818;2022-07-23T00:16:27;100702.63;;;20.85;62.02
72892;BME280;61032;50.782;6.818;2022-07-23T00:17:27;100711.81;;;20.85;62.01
72892;BME280;61032;50.782;6.818;2022-07-23T00:18:28;100699.84;;;20.85;62.46
72892;BME280;61032;50.782;6.818;2022-07-23T00:19:28;100699.03;;;20.81;62.15
72892;BME280;61032;50.782;6.818;2022-07-23T00:20:29;100694.63;;;20.73;62.75
72892;BME280;61032;50.782;6.818;2022-07-23T00:21:29;100692.59;;;20.70;62.99
72892;BME280;61032;50.782;6.818;2022-07-23T00:22:30;100696.59;;;20.69;62.76
72892;BME280;61032;50.782;6.818;2022-07-23T00:23:30;100694.97;;;20.64;63.14
72892;BME280;61032;50.782;6.818;2022-07-23T00:24:31;100691.78;;;20.66;63.46
72892;BME280;61032;50.782;6.818;2022-07-23T00:25:31;100699.78;;;20.67;63.35
72892;BME280;61032;50.782;6.818;2022-07-23T00:26:32;100689.38;;;20.61;63.63
72892;BME280;61032;50.782;6.818;2022-07-23T00:27:32;100691.38;;;20.56;63.56
72892;BME280;61032;50.782;6.818;2022-07-23T00:28:33;100690.19;;;20.57;63.92
72892;BME280;61032;50.782;6.818;2022-07-23T00:29:33;100690.19;;;20.57;63.53
72892;BME280;61032;50.782;6.818;2022-07-23T00:30:33;100695.38;;;20.55;63.77
72892;BME280;61032;50.782;6.818;2022-07-23T00:31:34;100700.94;;;20.55;63.68
72892;BME280;61032;50.782;6.818;2022-07-23T00:32:51;100704.53;;;20.52;63.45
72892;BME280;61032;50.782;6.818;2022-07-23T00:33:52;100703.31;;;20.50;63.64
72892;BME280;61032;50.782;6.818;2022-07-23T00:34:56;100702.91;;;20.48;63.69
72892;BME280;61032;50.782;6.818;2022-07-23T00:35:57;100707.25;;;20.42;63.85
72892;BME280;61032;50.782;6.818;2022-07-23T00:36:57;100706.06;;;20.43;63.57
72892;BME280;61032;50.782;6.818;2022-07-23T00:37:58;100698.06;;;20.41;64.13
72892;BME280;61032;50.782;6.818;2022-07-23T00:38:59;100708.88;;;20.43;63.84
72892;BME280;61032;50.782;6.818;2022-07-23T00:39:59;100706.06;;;20.43;64.32
72892;BME280;61032;50.782;6.818;2022-07-23T00:40:59;100702.47;;;20.42;64.18
72892;BME280;61032;50.782;6.818;2022-07-23T00:42:00;100707.25;;;20.38;64.48
72892;BME280;61032;50.782;6.818;2022-07-23T00:43:00;100701.63;;;20.35;64.57
72892;BME280;61032;50.782;6.818;2022-07-23T00:44:21;100707.25;;;20.38;64.60
72892;BME280;61032;50.782;6.818;2022-07-23T00:45:21;100712.41;;;20.36;64.48
72892;BME280;61032;50.782;6.818;2022-07-23T00:46:22;100714.41;;;20.36;64.61
72892;BME280;61032;50.782;6.818;2022-07-23T00:47:23;100712.38;;;20.29;64.95
72892;BME280;61032;50.782;6.818;2022-07-23T00:48:23;100708.38;;;20.30;65.04
72892;BME280;61032;50.782;6.818;2022-07-23T00:49:27;100702.78;;;20.30;65.42
72892;BME280;61032;50.782;6.818;2022-07-23T00:50:28;100700.78;;;20.27;65.57
72892;BME280;61032;50.782;6.818;2022-07-23T00:51:29;100691.56;;;20.23;65.64
72892;BME280;61032;50.782;6.818;2022-07-23T00:52:29;100694.75;;;20.21;65.90
72892;BME280;61032;50.782;6.818;2022-07-23T00:53:30;100691.16;;;20.17;65.99
72892;BME280;61032;50.782;6.818;2022-07-23T00:54:31;100695.16;;;20.20;65.87
72892;BME280;61032;50.782;6.818;2022-07-23T00:55:32;100699.53;;;20.21;65.68
72892;BME280;61032;50.782;6.818;2022-07-23T00:56:34;100697.56;;;20.21;65.68
72892;BME280;61032;50.782;6.818;2022-07-23T00:57:35;100693.97;;;20.24;65.39
72892;BME280;61032;50.782;6.818;2022-07-23T00:58:36;100686.78;;;20.20;65.68
72892;BME280;61032;50.782;6.818;2022-07-23T00:59:40;100692.78;;;20.22;65.91
72892;BME280;61032;50.782;6.818;2022-07-23T01:00:41;100687.19;;;20.22;65.47
72892;BME280;61032;50.782;6.818;2022-07-23T01:01:42;100682.78;;;20.21;65.66
72892;BME280;61032;50.782;6.818;2022-07-23T01:02:44;100687.97;;;20.19;65.76
72892;BME280;61032;50.782;6.818;2022-07-23T01:03:44;100678.00;;;20.21;65.26
72892;BME280;61032;50.782;6.818;2022-07-23T01:04:45;100686.00;;;20.23;65.43
72892;BME280;61032;50.782;6.818;2022-07-23T01:05:45;100688.38;;;20.21;65.47
72892;BME280;61032;50.782;6.818;2022-07-23T01:06:46;100681.19;;;20.20;65.23
72892;BME280;61032;50.782;6.818;2022-07-23T01:07:47;100677.19;;;20.17;65.32
72892;BME280;61032;50.782;6.818;2022-07-23T01:08:48;100677.59;;;20.16;65.95
72892;BME280;61032;50.782;6.818;2022-07-23T01:09:48;100683.19;;;20.16;65.72
72892;BME280;61032;50.782;6.818;2022-07-23T01:10:50;100688.34;;;20.14;65.80
72892;BME280;61032;50.782;6.818;2022-07-23T01:11:51;100687.94;;;20.12;65.92
72892;BME280;61032;50.782;6.818;2022-07-23T01:12:54;100691.56;;;20.16;65.58
72892;BME280;61032;50.782;6.818;2022-07-23T01:13:55;100689.53;;;20.13;65.45
72892;BME280;61032;50.782;6.818;2022-07-23T01:14:59;100683.19;;;20.16;65.62
72892;BME280;61032;50.782;6.818;2022-07-23T01:16:00;100679.53;;;20.08;65.61
72892;BME280;61032;50.782;6.818;2022-07-23T01:17:00;100679.88;;;20.00;65.65
72892;BME280;61032;50.782;6.818;2022-07-23T01:18:02;100669.50;;;19.93;66.26
72892;BME280;61032;50.782;6.818;2022-07-23T01:19:06;100664.69;;;19.90;66.68
72892;BME280;61032;50.782;6.818;2022-07-23T01:20:07;100665.09;;;19.92;66.85
72892;BME280;61032;50.782;6.818;2022-07-23T01:21:09;100668.28;;;19.90;66.98
72892;BME280;61032;50.782;6.818;2022-07-23T01:22:15;100669.84;;;19.88;67.07
72892;BME280;61032;50.782;6.818;2022-07-23T01:23:17;100669.84;;;19.88;67.62
72892;BME280;61032;50.782;6.818;2022-07-23T01:24:18;100666.69;;;19.89;67.20
72892;BME280;61032;50.782;6.818;2022-07-23T01:25:22;100675.50;;;19.95;66.87
72892;BME280;61032;50.782;6.818;2022-07-23T01:26:23;100678.25;;;19.92;66.18
72892;BME280;61032;50.782;6.818;2022-07-23T01:27:23;100665.06;;;19.88;66.45
72892;BME280;61032;50.782;6.818;2022-07-23T01:28:23;100669.88;;;19.92;66.26
72892;BME280;61032;50.782;6.818;2022-07-23T01:29:24;100664.72;;;19.94;65.65
72892;BME280;61032;50.782;6.818;2022-07-23T01:30:24;100668.28;;;19.90;65.66
72892;BME280;61032;50.782;6.818;2022-07-23T01:31:25;100662.28;;;19.88;65.54
72892;BME280;61032;50.782;6.818;2022-07-23T01:32:25;100665.03;;;19.85;65.79
72892;BME280;61032;50.782;6.818;2022-07-23T01:33:25;100667.41;;;19.83;65.77
72892;BME280;61032;50.782;6.818;2022-07-23T01:34:26;100665.81;;;19.82;66.00
72892;BME280;61032;50.782;6.818;2022-07-23T01:35:26;100669.81;;;19.84;65.61
72892;BME280;61032;50.782;6.818;2022-07-23T01:36:27;100661.81;;;19.79;65.97
72892;BME280;61032;50.782;6.818;2022-07-23T01:37:27;100671.38;;;19.78;65.88
72892;BME280;61032;50.782;6.818;2022-07-23T01:38:27;100670.97;;;19.76;65.86
72892;BME280;61032;50.782;6.818;2022-07-23T01:39:28;100675.75;;;19.72;66.22
72892;BME280;61032;50.782;6.818;2022-07-23T01:40:28;100672.94;;;19.72;66.20
72892;BME280;61032;50.782;6.818;2022-07-23T01:41:29;100663.38;;;19.77;66.12
72892;BME280;61032;50.782;6.818;2022-07-23T01:42:29;100671.34;;;19.75;65.80
72892;BME280;61032;50.782;6.818;2022-07-23T01:43:30;100670.94;;;19.69;65.95
72892;BME280;61032;50.782;6.818;2022-07-23T01:44:30;100672.13;;;19.68;66.29
72892;BME280;61032;50.782;6.818;2022-07-23T01:45:30;100674.09;;;19.68;66.51
72892;BME280;61032;50.782;6.818;2022-07-23T01:46:31;100670.09;;;19.65;65.90
72892;BME280;61032;50.782;6.818;2022-07-23T01:47:31;100668.91;;;19.66;66.49
72892;BME280;61032;50.782;6.818;2022-07-23T01:48:31;100674.53;;;19.70;66.06
72892;BME280;61032;50.782;6.818;2022-07-23T01:49:32;100671.75;;;19.73;66.15
72892;BME280;61032;50.782;6.818;2022-07-23T01:50:32;100669.78;;;19.77;66.09
72892;BME280;61032;50.782;6.818;2022-07-23T01:51:32;100672.97;;;19.79;66.18
72892;BME280;61032;50.782;6.818;2022-07-23T01:52:33;100670.19;;;19.79;66.36
72892;BME280;61032;50.782;6.818;2022-07-23T01:53:33;100670.16;;;19.76;66.81
72892;BME280;61032;50.782;6.818;2022-07-23T01:54:34;100676.53;;;19.73;67.35
72892;BME280;61032;50.782;6.818;2022-07-23T01:55:34;100671.34;;;19.71;67.81
72892;BME280;61032;50.782;6.818;2022-07-23T01:56:34;100672.94;;;19.72;67.65
72892;BME280;61032;50.782;6.818;2022-07-23T01:57:35;100668.16;;;19.73;67.44
72892;BME280;61032;50.782;6.818;2022-07-23T01:58:35;100671.34;;;19.75;68.14
72892;BME280;61032;50.782;6.818;2022-07-23T01:59:36;100668.56;;;19.75;68.22
72892;BME280;61032;50.782;6.818;2022-07-23T02:00:37;100665.00;;;19.74;68.42
72892;BME280;61032;50.782;6.818;2022-07-23T02:01:37;100664.19;;;19.74;68.47
72892;BME280;61032;50.782;6.818;2022-07-23T02:02:37;100668.94;;;19.70;68.56
72892;BME280;61032;50.782;6.818;2022-07-23T02:03:38;100659.34;;;19.67;68.62
72892;BME280;61032;50.782;6.818;2022-07-23T02:04:38;100656.16;;;19.65;68.87
72892;BME280;61032;50.782;6.818;2022-07-23T02:05:38;100652.53;;;19.61;69.02
72892;BME280;61032;50.782;6.818;2022-07-23T02:06:39;100659.69;;;19.59;69.34
72892;BME280;61032;50.782;6.818;2022-07-23T02:07:39;100664.44;;;19.58;69.52
72892;BME280;61032;50.782;6.818;2022-07-23T02:08:40;100671.22;;;19.57;69.18
72892;BME280;61032;50.782;6.818;2022-07-23T02:09:40;100675.19;;;19.56;69.55
72892;BME280;61032;50.782;6.818;2022-07-23T02:10:40;100666.44;;;19.58;68.92
72892;BME280;61032;50.782;6.818;2022-07-23T02:11:41;100667.22;;;19.51;69.61
72892;BME280;61032;50.782;6.818;2022-07-23T02:12:41;100672.00;;;19.54;69.39
72892;BME280;61032;50.782;6.818;2022-07-23T02:13:42;100663.28;;;19.59;69.15
72892;BME280;61032;50.782;6.818;2022-07-23T02:14:42;100656.06;;;19.51;69.92
72892;BME280;61032;50.782;6.818;2022-07-23T02:15:42;100657.16;;;19.43;70.33
72892;BME280;61032;50.782;6.818;2022-07-23T02:16:43;100652.31;;;19.36;71.16
72892;BME280;61032;50.782;6.818;2022-07-23T02:17:43;100654.66;;;19.31;71.74
72892;BME280;61032;50.782;6.818;2022-07-23T02:18:44;100656.25;;;19.28;71.67
72892;BME280;61032;50.782;6.818;2022-07-23T02:19:44;100648.69;;;19.29;71.72
72892;BME280;61032;50.782;6.818;2022-07-23T02:20:44;100654.25;;;19.29;70.85
72892;BME280;61032;50.782;6.818;2022-07-23T02:21:45;100656.63;;;19.27;71.58
72892;BME280;61032;50.782;6.818;2022-07-23T02:22:45;100657.38;;;19.23;71.39
72892;BME280;61032;50.782;6.818;2022-07-23T02:23:45;100655.38;;;19.20;71.63
72892;BME280;61032;50.782;6.818;2022-07-23T02:24:46;100651.78;;;19.20;71.80
72892;BME280;61032;50.782;6.818;2022-07-23T02:25:46;100654.13;;;19.18;71.66
72892;BME280;61032;50.782;6.818;2022-07-23T02:26:48;100650.13;;;19.15;70.95
72892;BME280;61032;50.782;6.818;2022-07-23T02:27:48;100642.94;;;19.14;71.14
72892;BME280;61032;50.782;6.818;2022-07-23T02:28:49;100640.56;;;19.13;71.23
72892;BME280;61032;50.782;6.818;2022-07-23T02:29:49;100646.91;;;19.10;71.66
72892;BME280;61032;50.782;6.818;2022-07-23T02:30:50;100648.47;;;19.07;72.63
72892;BME280;61032;50.782;6.818;2022-07-23T02:31:50;100648.06;;;19.05;72.36
72892;BME280;61032;50.782;6.818;2022-07-23T02:32:50;100651.69;;;19.09;72.29
72892;BME280;61032;50.782;6.818;2022-07-23T02:33:51;100646.94;;;19.13;72.36
72892;BME280;61032;50.782;6.818;2022-07-23T02:34:51;100644.59;;;19.19;72.37
72892;BME280;61032;50.782;6.818;2022-07-23T02:35:51;100646.69;;;19.29;72.03
72892;BME280;61032;50.782;6.818;2022-07-23T02:36:52;100646.31;;;19.31;71.21
72892;BME280;61032;50.782;6.818;2022-07-23T02:37:52;100647.09;;;19.31;71.55
72892;BME280;61032;50.782;6.818;2022-07-23T02:38:52;100648.72;;;19.32;71.59
72892;BME280;61032;50.782;6.818;2022-07-23T02:39:53;100645.50;;;19.34;71.99
72892;BME280;61032;50.782;6.818;2022-07-23T02:40:53;100653.50;;;19.35;71.34
72892;BME280;61032;50.782;6.818;2022-07-23T02:41:54;100649.50;;;19.33;71.68
72892;BME280;61032;50.782;6.818;2022-07-23T02:42:54;100644.69;;;19.30;71.77
72892;BME280;61032;50.782;6.818;2022-07-23T02:43:54;100649.84;;;19.28;71.99
72892;BME280;61032;50.782;6.818;2022-07-23T02:44:55;100647.84;;;19.25;72.15
72892;BME280;61032;50.782;6.818;2022-07-23T02:45:55;100645.00;;;19.21;72.03
72892;BME280;61032;50.782;6.818;2022-07-23T02:46:55;100642.19;;;19.17;72.05
72892;BME280;61032;50.782;6.818;2022-07-23T02:47:56;100648.56;;;19.18;72.21
72892;BME280;61032;50.782;6.818;2022-07-23T02:48:56;100645.75;;;19.14;72.85
72892;BME280;61032;50.782;6.818;2022-07-23T02:49:56;100659.25;;;19.12;73.15
72892;BME280;61032;50.782;6.818;2022-07-23T02:50:57;100657.28;;;19.13;72.97
72892;BME280;61032;50.782;6.818;2022-07-23T02:51:57;100655.28;;;19.13;73.05
72892;BME280;61032;50.782;6.818;2022-07-23T02:52:58;100660.84;;;19.10;73.10
72892;BME280;61032;50.782;6.818;2022-07-23T02:53:58;100665.22;;;19.07;73.49
72892;BME280;61032;50.782;6.818;2022-07-23T02:54:59;100667.97;;;19.04;73.53
72892;BME280;61032;50.782;6.818;2022-07-23T02:55:59;100664.38;;;19.03;73.99
72892;BME280;61032;50.782;6.818;2022-07-23T02:56:59;100669.91;;;19.00;74.21
72892;BME280;61032;50.782;6.818;2022-07-23T02:58:00;100665.91;;;18.97;74.32
72892;BME280;61032;50.782;6.818;2022-07-23T02:59:00;100664.28;;;18.96;74.26
72892;BME280;61032;50.782;6.818;2022-07-23T03:00:00;100668.63;;;18.94;74.76
72892;BME280;61032;50.782;6.818;2022-07-23T03:01:01;100668.63;;;18.94;74.47
72892;BME280;61032;50.782;6.818;2022-07-23T03:02:01;100670.63;;;18.93;74.72
72892;BME280;61032;50.782;6.818;2022-07-23T03:03:02;100669.00;;;18.88;74.84
72892;BME280;61032;50.782;6.818;2022-07-23T03:04:02;100672.59;;;18.89;74.78
72892;BME280;61032;50.782;6.818;2022-07-23T03:05:03;100672.19;;;18.87;74.70
72892;BME280;61032;50.782;6.818;2022-07-23T03:06:04;100667.34;;;18.84;75.05
72892;BME280;61032;50.782;6.818;2022-07-23T03:07:04;100672.94;;;18.84;74.81
72892;BME280;61032;50.782;6.818;2022-07-23T03:08:05;100670.59;;;18.90;74.81
72892;BME280;61032;50.782;6.818;2022-07-23T03:09:05;100672.19;;;18.87;74.49
72892;BME280;61032;50.782;6.818;2022-07-23T03:10:06;100675.28;;;18.82;74.64
72892;BME280;61032;50.782;6.818;2022-07-23T03:11:06;100672.47;;;18.78;74.51
72892;BME280;61032;50.782;6.818;2022-07-23T03:12:11;100670.81;;;18.74;74.60
72892;BME280;61032;50.782;6.818;2022-07-23T03:13:11;100666.84;;;18.75;74.65
72892;BME280;61032;50.782;6.818;2022-07-23T03:14:11;100674.78;;;18.73;74.63
72892;BME280;61032;50.782;6.818;2022-07-23T03:15:13;100662.84;;;18.72;74.69
72892;BME280;61032;50.782;6.818;2022-07-23T03:16:13;100668.47;;;18.76;75.12
72892;BME280;61032;50.782;6.818;2022-07-23T03:17:14;100663.25;;;18.74;74.84
72892;BME280;61032;50.782;6.818;2022-07-23T03:18:14;100672.84;;;18.77;74.76
72892;BME280;61032;50.782;6.818;2022-07-23T03:19:14;100668.06;;;18.77;74.82
72892;BME280;61032;50.782;6.818;2022-07-23T03:20:15;100668.88;;;18.78;74.95
72892;BME280;61032;50.782;6.818;2022-07-23T03:21:15;100672.50;;;18.82;74.68
72892;BME280;61032;50.782;6.818;2022-07-23T03:22:15;100669.38;;;18.87;74.38
72892;BME280;61032;50.782;6.818;2022-07-23T03:23:16;100668.22;;;18.88;74.53
72892;BME280;61032;50.782;6.818;2022-07-23T03:24:16;100656.28;;;18.91;74.41
72892;BME280;61032;50.782;6.818;2022-07-23T03:25:18;100659.47;;;18.93;74.11
72892;BME280;61032;50.782;6.818;2022-07-23T03:26:18;100663.06;;;18.94;74.17
72892;BME280;61032;50.782;6.818;2022-07-23T03:27:19;100661.06;;;18.91;74.00
72892;BME280;61032;50.782;6.818;2022-07-23T03:28:19;100661.03;;;18.87;73.83
72892;BME280;61032;50.782;6.818;2022-07-23T03:29:20;100655.47;;;18.87;74.00
72892;BME280;61032;50.782;6.818;2022-07-23T03:30:20;100662.22;;;18.86;73.92
72892;BME280;61032;50.782;6.818;2022-07-23T03:31:20;100665.75;;;18.83;74.05
72892;BME280;61032;50.782;6.818;2022-07-23T03:32:22;100662.53;;;18.81;74.12
72892;BME280;61032;50.782;6.818;2022-07-23T03:33:23;100662.50;;;18.77;74.06
72892;BME280;61032;50.782;6.818;2022-07-23T03:34:23;100660.84;;;18.73;74.11
72892;BME280;61032;50.782;6.818;2022-07-23T03:35:23;100660.44;;;18.71;74.43
72892;BME280;61032;50.782;6.818;2022-07-23T03:36:24;100658.06;;;18.69;74.29
72892;BME280;61032;50.782;6.818;2022-07-23T03:37:24;100667.59;;;18.68;74.41
72892;BME280;61032;50.782;6.818;2022-07-23T03:38:25;100667.56;;;18.65;74.73
72892;BME280;61032;50.782;6.818;2022-07-23T03:39:25;100671.91;;;18.62;74.88
72892;BME280;61032;50.782;6.818;2022-07-23T03:40:26;100665.91;;;18.60;74.57
72892;BME280;61032;50.782;6.818;2022-07-23T03:41:26;100659.16;;;18.61;74.60
72892;BME280;61032;50.782;6.818;2022-07-23T03:42:26;100663.53;;;18.62;74.64
72892;BME280;61032;50.782;6.818;2022-07-23T03:43:27;100665.09;;;18.60;74.15
72892;BME280;61032;50.782;6.818;2022-07-23T03:44:27;100666.25;;;18.59;74.44
72892;BME280;61032;50.782;6.818;2022-07-23T03:45:28;100670.22;;;18.58;74.55
72892;BME280;61032;50.782;6.818;2022-07-23T03:46:28;100662.31;;;18.60;74.61
72892;BME280;61032;50.782;6.818;2022-07-23T03:47:28;100667.00;;;18.55;74.70
72892;BME280;61032;50.782;6.818;2022-07-23T03:48:29;100667.00;;;18.55;74.49
72892;BME280;61032;50.782;6.818;2022-07-23T03:49:29;100672.56;;;18.55;74.58
72892;BME280;61032;50.782;6.818;2022-07-23T03:50:30;100671.72;;;18.51;74.21
72892;BME280;61032;50.782;6.818;2022-07-23T03:51:30;100668.13;;;18.51;74.69
72892;BME280;61032;50.782;6.818;2022-07-23T03:52:30;100670.91;;;18.47;74.76
72892;BME280;61032;50.782;6.818;2022-07-23T03:53:31;100674.03;;;18.42;74.78
72892;BME280;61032;50.782;6.818;2022-07-23T03:54:31;100676.38;;;18.40;74.85
72892;BME280;61032;50.782;6.818;2022-07-23T03:55:31;100671.56;;;18.37;75.17
72892;BME280;61032;50.782;6.818;2022-07-23T03:56:32;100672.00;;;18.39;74.97
72892;BME280;61032;50.782;6.818;2022-07-23T03:57:32;100670.38;;;18.38;74.93
72892;BME280;61032;50.782;6.818;2022-07-23T03:58:32;100672.38;;;18.38;74.98
72892;BME280;61032;50.782;6.818;2022-07-23T03:59:33;100669.53;;;18.34;75.09
72892;BME280;61032;50.782;6.818;2022-07-23T04:00:33;100665.91;;;18.30;75.09
72892;BME280;61032;50.782;6.818;2022-07-23T04:01:33;100676.22;;;18.30;75.46
72892;BME280;61032;50.782;6.818;2022-07-23T04:02:34;100671.47;;;18.30;75.52
72892;BME280;61032;50.782;6.818;2022-07-23T04:03:34;100678.22;;;18.29;75.20
72892;BME280;61032;50.782;6.818;2022-07-23T04:04:34;100679.81;;;18.30;75.53
72892;BME280;61032;50.782;6.818;2022-07-23T04:05:35;100674.59;;;18.25;75.56
72892;BME280;61032;50.782;6.818;2022-07-23T04:06:35;100682.19;;;18.28;75.45
72892;BME280;61032;50.782;6.818;2022-07-23T04:07:36;100679.00;;;18.26;75.73
72892;BME280;61032;50.782;6.818;2022-07-23T04:08:36;100685.78;;;18.29;75.58
72892;BME280;61032;50.782;6.818;2022-07-23T04:09:36;100684.19;;;18.28;75.59
72892;BME280;61032;50.782;6.818;2022-07-23T04:10:37;100680.59;;;18.27;75.33
72892;BME280;61032;50.782;6.818;2022-07-23T04:11:37;100686.16;;;18.27;75.51
72892;BME280;61032;50.782;6.818;2022-07-23T04:12:37;100681.78;;;18.26;75.35
72892;BME280;61032;50.782;6.818;2022-07-23T04:13:38;100682.53;;;18.23;75.58
72892;BME280;61032;50.782;6.818;2022-07-23T04:14:38;100688.84;;;18.20;75.57
72892;BME280;61032;50.782;6.818;2022-07-23T04:15:38;100676.84;;;18.16;75.65
72892;BME280;61032;50.782;6.818;2022-07-23T04:16:39;100682.84;;;18.18;75.50
72892;BME280;61032;50.782;6.818;2022-07-23T04:17:39;100687.97;;;18.16;75.48
72892;BME280;61032;50.782;6.818;2022-07-23T04:18:40;100687.56;;;18.14;75.33
72892;BME280;61032;50.782;6.818;2022-07-23T04:19:40;100691.09;;;18.11;75.76
72892;BME280;61032;50.782;6.818;2022-07-23T04:20:44;100691.88;;;18.08;75.90
72892;BME280;61032;50.782;6.818;2022-07-23T04:21:44;100696.56;;;18.04;75.83
72892;BME280;61032;50.782;6.818;2022-07-23T04:22:44;100692.19;;;18.03;75.97
72892;BME280;61032;50.782;6.818;2022-07-23T04:23:45;100694.91;;;17.99;76.63
72892;BME280;61032;50.782;6.818;2022-07-23T04:24:45;100702.47;;;17.99;76.45
72892;BME280;61032;50.782;6.818;2022-07-23T04:25:46;100699.66;;;17.99;76.54
72892;BME280;61032;50.782;6.818;2022-07-23T04:26:46;100702.47;;;17.99;76.60
72892;BME280;61032;50.782;6.818;2022-07-23T04:27:46;100709.19;;;17.98;76.44
72892;BME280;61032;50.782;6.818;2022-07-23T04:28:47;100708.41;;;17.97;76.21
72892;BME280;61032;50.782;6.818;2022-07-23T04:29:47;100714.22;;;17.89;76.11
72892;BME280;61032;50.782;6.818;2022-07-23T04:30:47;100713.03;;;17.90;76.15
72892;BME280;61032;50.782;6.818;2022-07-23T04:31:48;100708.66;;;17.89;76.13
72892;BME280;61032;50.782;6.818;2022-07-23T04:32:48;100709.44;;;17.85;76.20
72892;BME280;61032;50.782;6.818;2022-07-23T04:33:48;100714.63;;;17.87;75.88
72892;BME280;61032;50.782;6.818;2022-07-23T04:34:48;100714.19;;;17.85;76.30
72892;BME280;61032;50.782;6.818;2022-07-23T04:35:49;100709.00;;;17.83;76.25
72892;BME280;61032;50.782;6.818;2022-07-23T04:36:49;100715.34;;;17.84;76.36
72892;BME280;61032;50.782;6.818;2022-07-23T04:37:50;100718.50;;;17.82;76.27
72892;BME280;61032;50.782;6.818;2022-07-23T04:38:50;100716.09;;;17.81;76.17
72892;BME280;61032;50.782;6.818;2022-07-23T04:39:50;100723.28;;;17.82;76.39
72892;BME280;61032;50.782;6.818;2022-07-23T04:40:50;100718.09;;;17.80;76.29
72892;BME280;61032;50.782;6.818;2022-07-23T04:41:51;100729.53;;;17.75;76.31
72892;BME280;61032;50.782;6.818;2022-07-23T04:42:51;100727.38;;;17.65;77.04
72892;BME280;61032;50.782;6.818;2022-07-23T04:43:52;100727.78;;;17.67;77.11
72892;BME280;61032;50.782;6.818;2022-07-23T04:44:52;100727.41;;;17.69;77.03
72892;BME280;61032;50.782;6.818;2022-07-23T04:45:53;100736.13;;;17.67;76.87
72892;BME280;61032;50.782;6.818;2022-07-23T04:46:53;100737.00;;;17.71;76.95
72892;BME280;61032;50.782;6.818;2022-07-23T04:47:54;100734.34;;;17.78;76.65
72892;BME280;61032;50.782;6.818;2022-07-23T04:48:54;100740.72;;;17.79;76.48
72892;BME280;61032;50.782;6.818;2022-07-23T04:49:55;100729.16;;;17.77;76.46
72892;BME280;61032;50.782;6.818;2022-07-23T04:50:55;100729.56;;;17.79;76.44
72892;BME280;61032;50.782;6.818;2022-07-23T04:51:55;100731.63;;;17.82;76.80
72892;BME280;61032;50.782;6.818;2022-07-23T04:52:56;100743.91;;;17.81;76.38
72892;BME280;61032;50.782;6.818;2022-07-23T04:53:56;100739.97;;;17.82;76.44
72892;BME280;61032;50.782;6.818;2022-07-23T04:54:56;100738.41;;;17.84;76.22
72892;BME280;61032;50.782;6.818;2022-07-23T04:55:57;100745.25;;;17.91;77.02
72892;BME280;61032;50.782;6.818;2022-07-23T04:56:57;100743.34;;;17.95;76.10
72892;BME280;61032;50.782;6.818;2022-07-23T04:57:57;100750.06;;;17.94;76.07
72892;BME280;61032;50.782;6.818;2022-07-23T04:58:57;100746.13;;;17.95;76.26
72892;BME280;61032;50.782;6.818;2022-07-23T04:59:58;100740.97;;;17.97;75.88
72892;BME280;61032;50.782;6.818;2022-07-23T05:00:58;100741.53;;;18.06;75.81
72892;BME280;61032;50.782;6.818;2022-07-23T05:01:58;100739.91;;;18.05;75.77
72892;BME280;61032;50.782;6.818;2022-07-23T05:02:59;100739.19;;;18.08;75.92
72892;BME280;61032;50.782;6.818;2022-07-23T05:03:59;100746.75;;;18.11;75.80
72892;BME280;61032;50.782;6.818;2022-07-23T05:05:00;100744.44;;;18.16;75.61
72892;BME280;61032;50.782;6.818;2022-07-23T05:06:00;100745.31;;;18.20;75.38
72892;BME280;61032;50.782;6.818;2022-07-23T05:07:01;100749.31;;;18.23;75.33
72892;BME280;61032;50.782;6.818;2022-07-23T05:08:01;100751.78;;;18.28;75.20
72892;BME280;61032;50.782;6.818;2022-07-23T05:09:02;100747.09;;;18.36;74.68
72892;BME280;61032;50.782;6.818;2022-07-23T05:10:02;100747.16;;;18.39;74.82
72892;BME280;61032;50.782;6.818;2022-07-23T05:11:03;100751.59;;;18.44;74.49
72892;BME280;61032;50.782;6.818;2022-07-23T05:12:04;100746.09;;;18.47;74.25
72892;BME280;61032;50.782;6.818;2022-07-23T05:13:04;100746.97;;;18.55;73.88
72892;BME280;61032;50.782;6.818;2022-07-23T05:14:04;100750.69;;;18.63;73.35
72892;BME280;61032;50.782;6.818;2022-07-23T05:15:05;100747.53;;;18.64;73.35
72892;BME280;61032;50.782;6.818;2022-07-23T05:16:05;100753.16;;;18.71;73.55
72892;BME280;61032;50.782;6.818;2022-07-23T05:17:06;100754.44;;;18.77;73.13